Minot, ME

19:47 EDT le 30 octobre 2014 (GMT -0400)
Eastern Slopes Regional | Change Station
CLOSE
Current Station
Aéroport
Location: Fryeburg,
Altitude: 453 ft
Stations météo à proximité

Alt. 453 ft 43.99 °N, 70.95 °W | Updated 53 minutes ago

Ciel dégagé
Ciel dégagé
43 ° F
Paraît 41 ° F
N
4
Vent Variable Vent de NO

Aujourd'hui
Haut(e) -- | Bas -- ° F
--% Risque de précip.
Hier
Haut(e) -- | Bas -- ° F
Precip. -- pouce
7:15 AM 5:34 PM
Lune montante, 49% visible
Pression 29.98 pouce
Visibilité 10.0 Miles terrestres
Nuages Peu 4900 ft
Refroidissement éolien 41 ° F
Point de rosée 32 ° F
Humidité 65%
Précipitations 0.00 pouce
Profondeur de la couche neigeuse Non disponible.
UV 0 sur 12
Pollen .60 sur 12
Qualité de l'air Non disponible.
Flu Activity Non disponible.
METAR KIZG 302254Z AUTO 32003KT 10SM FEW049 06/00 A2996 RMK AO2 SLP150 T00610000

More Conditions Fewer Conditions

Pression 29.98 pouce
Visibilité 10.0 Miles terrestres
Nuages Peu 4900 ft
Refroidissement éolien 41 ° F
Point de rosée 32 ° F
Humidité 65%
Précipitations 0.00 pouce
Profondeur de la couche neigeuse Non disponible.
UV 0 sur 12
Pollen .60 sur 12
Qualité de l'air Non disponible.
Flu Activity Non disponible.
METAR KIZG 302254Z AUTO 32003KT 10SM FEW049 06/00 A2996 RMK AO2 SLP150 T00610000

More Conditions Fewer Conditions

10-Day Weather Forecast

Almanac

Astronomie

Oct. 30, 2014 Lever Coucher
Temps réel
Crépuscule civil
Crépuscule nautique
Crépuscule astronomique
Lune
Durée de lumière visible
Longueur du jour
Tomorrow will be .
, % of the Moon is Illuminated

Extrêmes aujourd'hui

State Highs State Lows

Community

WunderPhotos

Upload Photos

1,766,496 Photos téléchargées !

WunderBlogs® & News

Nearby

Qualité de l'air

  Qualité de l'air Indice de la qualité de l'air Polluant
Not available.

Épaisseur de neige

Station Depth Altitude

Activité sismique

Ville Distance Mag. Time & Date
Minimum magnitude displayed is 2.5.

Températures des eaux côtières

Lieu Température

Stations météo à proximité